sensor_id;sensor_type;location;lat;lon;timestamp;pressure;altitude;pressure_sealevel;temperature;humidity
8320;BME280;4197;42.130;24.746;2024-02-23T00:02:09;99468.84;;;5.12;100.00
8320;BME280;4197;42.130;24.746;2024-02-23T00:04:39;99459.06;;;4.99;100.00
8320;BME280;4197;42.130;24.746;2024-02-23T00:07:08;99473.16;;;5.05;100.00
8320;BME280;4197;42.130;24.746;2024-02-23T00:09:37;99474.56;;;5.02;100.00
8320;BME280;4197;42.130;24.746;2024-02-23T00:12:07;99474.38;;;4.99;100.00
8320;BME280;4197;42.130;24.746;2024-02-23T00:14:36;99468.22;;;4.98;100.00
8320;BME280;4197;42.130;24.746;2024-02-23T00:17:05;99468.06;;;4.95;100.00
8320;BME280;4197;42.130;24.746;2024-02-23T00:19:34;99466.50;;;4.94;100.00
8320;BME280;4197;42.130;24.746;2024-02-23T00:22:04;99458.75;;;4.83;100.00
8320;BME280;4197;42.130;24.746;2024-02-23T00:24:35;99455.09;;;4.79;100.00
8320;BME280;4197;42.130;24.746;2024-02-23T00:27:04;99455.09;;;4.79;100.00
8320;BME280;4197;42.130;24.746;2024-02-23T00:29:33;99451.47;;;4.75;100.00
8320;BME280;4197;42.130;24.746;2024-02-23T00:32:00;99447.81;;;4.71;100.00
8320;BME280;4197;42.130;24.746;2024-02-23T00:34:29;99447.19;;;4.74;100.00
8320;BME280;4197;42.130;24.746;2024-02-23T00:36:59;99442.44;;;4.71;100.00
8320;BME280;4197;42.130;24.746;2024-02-23T00:39:29;99446.88;;;4.67;100.00
8320;BME280;4197;42.130;24.746;2024-02-23T00:41:59;99446.88;;;4.67;100.00
8320;BME280;4197;42.130;24.746;2024-02-23T00:44:27;99433.44;;;4.67;100.00
8320;BME280;4197;42.130;24.746;2024-02-23T00:46:55;99433.59;;;4.62;100.00
8320;BME280;4197;42.130;24.746;2024-02-23T00:49:28;99436.59;;;4.60;100.00
8320;BME280;4197;42.130;24.746;2024-02-23T00:51:57;99439.59;;;4.85;100.00
8320;BME280;4197;42.130;24.746;2024-02-23T00:54:26;99442.13;;;4.81;100.00
8320;BME280;4197;42.130;24.746;2024-02-23T00:56:56;99437.06;;;4.71;100.00
8320;BME280;4197;42.130;24.746;2024-02-23T00:59:24;99430.59;;;4.63;100.00
8320;BME280;4197;42.130;24.746;2024-02-23T01:01:54;99432.16;;;4.56;100.00
8320;BME280;4197;42.130;24.746;2024-02-23T01:04:23;99430.88;;;4.53;100.00
8320;BME280;4197;42.130;24.746;2024-02-23T01:06:52;99432.31;;;4.51;100.00
8320;BME280;4197;42.130;24.746;2024-02-23T01:09:21;99426.13;;;4.41;100.00
8320;BME280;4197;42.130;24.746;2024-02-23T01:11:49;99424.09;;;4.38;100.00
8320;BME280;4197;42.130;24.746;2024-02-23T01:14:19;99424.25;;;4.42;100.00
8320;BME280;4197;42.130;24.746;2024-02-23T01:16:48;99423.75;;;4.40;100.00
8320;BME280;4197;42.130;24.746;2024-02-23T01:19:16;99412.53;;;4.38;100.00
8320;BME280;4197;42.130;24.746;2024-02-23T01:21:45;99424.09;;;4.38;100.00
8320;BME280;4197;42.130;24.746;2024-02-23T01:24:14;99409.38;;;4.36;100.00
8320;BME280;4197;42.130;24.746;2024-02-23T01:26:43;99407.00;;;4.34;100.00
8320;BME280;4197;42.130;24.746;2024-02-23T01:29:11;99407.00;;;4.34;100.00
8320;BME280;4197;42.130;24.746;2024-02-23T01:31:42;99414.41;;;4.29;100.00
8320;BME280;4197;42.130;24.746;2024-02-23T01:34:27;99413.28;;;4.21;100.00
8320;BME280;4197;42.130;24.746;2024-02-23T01:36:56;99409.16;;;4.15;100.00
8320;BME280;4197;42.130;24.746;2024-02-23T01:39:25;99402.53;;;4.12;100.00
8320;BME280;4197;42.130;24.746;2024-02-23T01:41:53;99402.38;;;4.09;100.00
8320;BME280;4197;42.130;24.746;2024-02-23T01:44:22;99407.75;;;4.09;100.00
8320;BME280;4197;42.130;24.746;2024-02-23T01:46:52;99407.59;;;4.14;100.00
8320;BME280;4197;42.130;24.746;2024-02-23T01:49:20;99397.81;;;4.18;100.00
8320;BME280;4197;42.130;24.746;2024-02-23T01:51:57;99395.75;;;4.15;100.00
8320;BME280;4197;42.130;24.746;2024-02-23T01:54:25;99398.91;;;4.08;100.00
8320;BME280;4197;42.130;24.746;2024-02-23T01:56:56;99384.84;;;4.02;100.00
8320;BME280;4197;42.130;24.746;2024-02-23T01:59:45;99386.53;;;3.98;100.00
8320;BME280;4197;42.130;24.746;2024-02-23T02:02:16;99387.03;;;4.00;100.00
8320;BME280;4197;42.130;24.746;2024-02-23T02:04:44;99386.91;;;4.06;100.00
8320;BME280;4197;42.130;24.746;2024-02-23T02:07:14;99386.53;;;3.98;100.00
8320;BME280;4197;42.130;24.746;2024-02-23T02:09:42;99385.91;;;4.01;100.00
8320;BME280;4197;42.130;24.746;2024-02-23T02:12:10;99389.22;;;3.98;100.00
8320;BME280;4197;42.130;24.746;2024-02-23T02:14:39;99385.91;;;3.93;100.00
8320;BME280;4197;42.130;24.746;2024-02-23T02:17:07;99390.00;;;3.90;100.00
8320;BME280;4197;42.130;24.746;2024-02-23T02:19:37;99390.81;;;3.91;100.00
8320;BME280;4197;42.130;24.746;2024-02-23T02:22:05;99389.34;;;3.85;100.00
8320;BME280;4197;42.130;24.746;2024-02-23T02:24:34;99382.25;;;3.80;100.00
8320;BME280;4197;42.130;24.746;2024-02-23T02:27:03;99392.47;;;3.78;100.00
8320;BME280;4197;42.130;24.746;2024-02-23T02:29:34;99381.63;;;3.83;100.00
8320;BME280;4197;42.130;24.746;2024-02-23T02:32:04;99375.47;;;3.83;100.00
8320;BME280;4197;42.130;24.746;2024-02-23T02:34:32;99383.31;;;3.79;100.00
8320;BME280;4197;42.130;24.746;2024-02-23T02:37:02;99388.53;;;3.75;100.00
8320;BME280;4197;42.130;24.746;2024-02-23T02:39:31;99382.53;;;3.78;100.00
8320;BME280;4197;42.130;24.746;2024-02-23T02:41:59;99386.63;;;3.76;100.00
8320;BME280;4197;42.130;24.746;2024-02-23T02:44:28;99387.16;;;3.87;100.00
8320;BME280;4197;42.130;24.746;2024-02-23T02:46:57;99383.19;;;3.84;100.00
8320;BME280;4197;42.130;24.746;2024-02-23T02:49:25;99388.56;;;3.84;100.00
8320;BME280;4197;42.130;24.746;2024-02-23T02:51:54;99390.75;;;3.82;100.00
8320;BME280;4197;42.130;24.746;2024-02-23T02:54:24;99388.88;;;3.83;100.00
8320;BME280;4197;42.130;24.746;2024-02-23T02:56:53;99389.19;;;3.81;100.00
8320;BME280;4197;42.130;24.746;2024-02-23T02:59:23;99384.44;;;3.78;100.00
8320;BME280;4197;42.130;24.746;2024-02-23T03:01:54;99396.41;;;3.72;100.00
8320;BME280;4197;42.130;24.746;2024-02-23T03:04:24;99397.50;;;3.71;100.00
8320;BME280;4197;42.130;24.746;2024-02-23T03:06:52;99405.28;;;3.81;100.00
8320;BME280;4197;42.130;24.746;2024-02-23T03:09:21;99398.28;;;3.71;100.00
8320;BME280;4197;42.130;24.746;2024-02-23T03:11:52;99397.81;;;3.69;100.00
8320;BME280;4197;42.130;24.746;2024-02-23T03:14:20;99404.50;;;3.80;100.00
8320;BME280;4197;42.130;24.746;2024-02-23T03:16:49;99390.84;;;3.68;100.00
8320;BME280;4197;42.130;24.746;2024-02-23T03:19:17;99402.81;;;3.62;100.00
8320;BME280;4197;42.130;24.746;2024-02-23T03:21:50;99412.50;;;3.72;100.00
8320;BME280;4197;42.130;24.746;2024-02-23T03:24:19;99407.69;;;3.60;100.00
8320;BME280;4197;42.130;24.746;2024-02-23T03:26:47;99408.63;;;3.55;100.00
8320;BME280;4197;42.130;24.746;2024-02-23T03:29:17;99414.50;;;3.57;100.00
8320;BME280;4197;42.130;24.746;2024-02-23T03:31:46;99412.59;;;3.58;100.00
8320;BME280;4197;42.130;24.746;2024-02-23T03:34:14;99406.44;;;3.57;100.00
8320;BME280;4197;42.130;24.746;2024-02-23T03:36:43;99409.22;;;3.44;100.00
8320;BME280;4197;42.130;24.746;2024-02-23T03:39:11;99406.56;;;3.52;100.00
8320;BME280;4197;42.130;24.746;2024-02-23T03:41:40;99405.88;;;3.38;100.00
8320;BME280;4197;42.130;24.746;2024-02-23T03:44:08;99401.38;;;3.25;100.00
8320;BME280;4197;42.130;24.746;2024-02-23T03:46:38;99405.44;;;3.22;100.00
8320;BME280;4197;42.130;24.746;2024-02-23T03:49:07;99406.34;;;3.18;100.00
8320;BME280;4197;42.130;24.746;2024-02-23T03:51:38;99414.09;;;3.19;100.00
8320;BME280;4197;42.130;24.746;2024-02-23T03:54:07;99416.47;;;3.21;100.00
8320;BME280;4197;42.130;24.746;2024-02-23T03:56:39;99409.66;;;3.15;100.00
8320;BME280;4197;42.130;24.746;2024-02-23T03:59:09;99420.66;;;3.13;100.00
8320;BME280;4197;42.130;24.746;2024-02-23T04:01:39;99411.94;;;3.07;100.00
8320;BME280;4197;42.130;24.746;2024-02-23T04:04:07;99408.59;;;3.02;100.00
8320;BME280;4197;42.130;24.746;2024-02-23T04:06:36;99411.09;;;2.98;100.00
8320;BME280;4197;42.130;24.746;2024-02-23T04:09:05;99409.72;;;3.01;100.00
8320;BME280;4197;42.130;24.746;2024-02-23T04:11:35;99402.41;;;2.93;100.00
8320;BME280;4197;42.130;24.746;2024-02-23T04:14:04;99412.16;;;2.88;100.00
8320;BME280;4197;42.130;24.746;2024-02-23T04:16:33;99402.63;;;2.82;100.00
8320;BME280;4197;42.130;24.746;2024-02-23T04:19:03;99400.44;;;2.84;100.00
8320;BME280;4197;42.130;24.746;2024-02-23T04:21:31;99399.16;;;2.82;100.00
8320;BME280;4197;42.130;24.746;2024-02-23T04:24:00;99400.63;;;2.88;100.00
8320;BME280;4197;42.130;24.746;2024-02-23T04:26:28;99405.91;;;3.02;100.00
8320;BME280;4197;42.130;24.746;2024-02-23T04:28:57;99416.47;;;2.98;100.00
8320;BME280;4197;42.130;24.746;2024-02-23T04:31:25;99411.41;;;2.97;100.00
8320;BME280;4197;42.130;24.746;2024-02-23T04:33:53;99411.22;;;2.93;100.00
8320;BME280;4197;42.130;24.746;2024-02-23T04:36:24;99413.22;;;2.87;100.00
8320;BME280;4197;42.130;24.746;2024-02-23T04:38:52;99413.16;;;2.79;100.00
8320;BME280;4197;42.130;24.746;2024-02-23T04:41:21;99402.88;;;2.72;100.00
8320;BME280;4197;42.130;24.746;2024-02-23T04:43:49;99403.84;;;2.76;100.00
8320;BME280;4197;42.130;24.746;2024-02-23T04:46:18;99401.47;;;2.75;100.00
8320;BME280;4197;42.130;24.746;2024-02-23T04:48:47;99411.25;;;2.79;100.00
8320;BME280;4197;42.130;24.746;2024-02-23T04:51:15;99409.09;;;2.81;100.00
8320;BME280;4197;42.130;24.746;2024-02-23T04:53:47;99415.63;;;2.89;100.00
8320;BME280;4197;42.130;24.746;2024-02-23T04:56:15;99404.78;;;2.94;100.00
8320;BME280;4197;42.130;24.746;2024-02-23T04:58:47;99406.47;;;2.90;100.00
8320;BME280;4197;42.130;24.746;2024-02-23T05:01:17;99404.28;;;2.92;100.00
8320;BME280;4197;42.130;24.746;2024-02-23T05:03:46;99407.38;;;2.85;100.00
8320;BME280;4197;42.130;24.746;2024-02-23T05:06:15;99408.25;;;2.95;100.00
8320;BME280;4197;42.130;24.746;2024-02-23T05:08:43;99418.47;;;2.93;100.00
8320;BME280;4197;42.130;24.746;2024-02-23T05:11:15;99415.41;;;2.85;100.00
8320;BME280;4197;42.130;24.746;2024-02-23T05:13:44;99411.94;;;2.85;100.00
8320;BME280;4197;42.130;24.746;2024-02-23T05:16:14;99420.03;;;2.94;100.00
8320;BME280;4197;42.130;24.746;2024-02-23T05:18:43;99419.97;;;2.85;100.00
8320;BME280;4197;42.130;24.746;2024-02-23T05:21:15;99431.19;;;2.87;100.00
8320;BME280;4197;42.130;24.746;2024-02-23T05:23:44;99430.91;;;2.88;100.00
8320;BME280;4197;42.130;24.746;2024-02-23T05:26:16;99434.34;;;2.89;100.00
8320;BME280;4197;42.130;24.746;2024-02-23T05:28:45;99435.75;;;2.86;100.00
8320;BME280;4197;42.130;24.746;2024-02-23T05:31:14;99441.19;;;2.95;100.00
8320;BME280;4197;42.130;24.746;2024-02-23T05:33:42;99440.69;;;2.93;100.00
8320;BME280;4197;42.130;24.746;2024-02-23T05:36:14;99439.72;;;2.89;100.00
8320;BME280;4197;42.130;24.746;2024-02-23T05:38:42;99445.94;;;2.98;100.00
8320;BME280;4197;42.130;24.746;2024-02-23T05:41:12;99432.41;;;3.03;100.00
8320;BME280;4197;42.130;24.746;2024-02-23T05:43:42;99440.75;;;3.02;100.00
8320;BME280;4197;42.130;24.746;2024-02-23T05:46:11;99440.75;;;3.02;100.00
8320;BME280;4197;42.130;24.746;2024-02-23T05:48:39;99438.69;;;2.99;100.00
8320;BME280;4197;42.130;24.746;2024-02-23T05:51:08;99445.38;;;3.10;100.00
8320;BME280;4197;42.130;24.746;2024-02-23T05:53:36;99450.94;;;3.13;100.00
8320;BME280;4197;42.130;24.746;2024-02-23T05:56:05;99456.53;;;3.26;100.00
8320;BME280;4197;42.130;24.746;2024-02-23T05:58:33;99449.41;;;3.21;100.00
8320;BME280;4197;42.130;24.746;2024-02-23T06:01:04;99449.91;;;3.23;100.00
8320;BME280;4197;42.130;24.746;2024-02-23T06:03:34;99457.38;;;3.35;100.00
8320;BME280;4197;42.130;24.746;2024-02-23T06:06:07;99468.34;;;3.47;100.00
8320;BME280;4197;42.130;24.746;2024-02-23T06:08:36;99464.63;;;3.57;100.00
8320;BME280;4197;42.130;24.746;2024-02-23T06:11:05;99473.09;;;3.50;100.00
8320;BME280;4197;42.130;24.746;2024-02-23T06:13:33;99479.91;;;3.56;100.00
8320;BME280;4197;42.130;24.746;2024-02-23T06:16:04;99481.38;;;3.63;100.00
8320;BME280;4197;42.130;24.746;2024-02-23T06:18:33;99491.47;;;3.66;100.00
8320;BME280;4197;42.130;24.746;2024-02-23T06:21:02;99490.91;;;3.69;100.00
8320;BME280;4197;42.130;24.746;2024-02-23T06:23:33;99487.59;;;3.72;100.00
8320;BME280;4197;42.130;24.746;2024-02-23T06:26:02;99498.78;;;3.74;100.00
8320;BME280;4197;42.130;24.746;2024-02-23T06:28:31;99501.84;;;3.81;100.00
8320;BME280;4197;42.130;24.746;2024-02-23T06:31:00;99499.03;;;3.86;100.00
8320;BME280;4197;42.130;24.746;2024-02-23T06:33:32;99495.09;;;3.92;100.00
8320;BME280;4197;42.130;24.746;2024-02-23T06:36:01;99499.22;;;3.98;100.00
8320;BME280;4197;42.130;24.746;2024-02-23T06:38:30;99495.94;;;4.01;100.00
8320;BME280;4197;42.130;24.746;2024-02-23T06:40:59;99497.25;;;4.13;100.00
8320;BME280;4197;42.130;24.746;2024-02-23T06:43:27;99495.22;;;4.18;100.00
8320;BME280;4197;42.130;24.746;2024-02-23T06:45:56;99498.84;;;4.14;100.00
8320;BME280;4197;42.130;24.746;2024-02-23T06:48:24;99493.59;;;4.09;100.00
8320;BME280;4197;42.130;24.746;2024-02-23T06:50:57;99495.69;;;4.20;100.00
8320;BME280;4197;42.130;24.746;2024-02-23T06:53:28;99492.06;;;4.16;100.00
8320;BME280;4197;42.130;24.746;2024-02-23T06:55:58;99490.38;;;4.38;100.00
8320;BME280;4197;42.130;24.746;2024-02-23T06:58:28;99498.63;;;4.41;100.00
8320;BME280;4197;42.130;24.746;2024-02-23T07:00:56;99498.53;;;4.64;100.00
8320;BME280;4197;42.130;24.746;2024-02-23T07:03:25;99497.59;;;4.68;100.00
8320;BME280;4197;42.130;24.746;2024-02-23T07:05:53;99496.50;;;4.78;100.00
8320;BME280;4197;42.130;24.746;2024-02-23T07:08:26;99493.31;;;4.76;100.00
8320;BME280;4197;42.130;24.746;2024-02-23T07:10:55;99495.56;;;4.83;100.00
8320;BME280;4197;42.130;24.746;2024-02-23T07:13:24;99491.91;;;4.79;100.00
8320;BME280;4197;42.130;24.746;2024-02-23T07:15:53;99500.00;;;4.96;100.00
8320;BME280;4197;42.130;24.746;2024-02-23T07:18:22;99509.34;;;5.07;100.00
8320;BME280;4197;42.130;24.746;2024-02-23T07:20:51;99499.38;;;5.08;100.00
8320;BME280;4197;42.130;24.746;2024-02-23T07:23:19;99493.38;;;5.11;100.00
8320;BME280;4197;42.130;24.746;2024-02-23T07:25:51;99484.38;;;5.16;100.00
8320;BME280;4197;42.130;24.746;2024-02-23T07:28:20;99486.72;;;5.26;100.00
8320;BME280;4197;42.130;24.746;2024-02-23T07:30:50;99486.09;;;5.29;100.00
8320;BME280;4197;42.130;24.746;2024-02-23T07:33:19;99479.28;;;5.49;100.00
8320;BME280;4197;42.130;24.746;2024-02-23T07:35:48;99488.25;;;5.70;100.00
8320;BME280;4197;42.130;24.746;2024-02-23T07:38:17;99486.16;;;5.85;100.00
8320;BME280;4197;42.130;24.746;2024-02-23T07:40:46;99479.16;;;5.92;100.00
8320;BME280;4197;42.130;24.746;2024-02-23T07:43:17;99475.47;;;6.14;100.00
8320;BME280;4197;42.130;24.746;2024-02-23T07:45:45;99474.03;;;6.17;100.00
8320;BME280;4197;42.130;24.746;2024-02-23T07:48:13;99481.66;;;6.15;100.00
8320;BME280;4197;42.130;24.746;2024-02-23T07:50:42;99480.16;;;6.35;100.00
8320;BME280;4197;42.130;24.746;2024-02-23T07:53:10;99480.88;;;6.44;100.00
8320;BME280;4197;42.130;24.746;2024-02-23T07:55:39;99467.38;;;6.53;100.00
8320;BME280;4197;42.130;24.746;2024-02-23T07:58:07;99479.94;;;6.69;100.00
8320;BME280;4197;42.130;24.746;2024-02-23T08:00:37;99472.53;;;6.87;100.00
8320;BME280;4197;42.130;24.746;2024-02-23T08:03:05;99479.91;;;6.99;100.00
8320;BME280;4197;42.130;24.746;2024-02-23T08:05:35;99478.13;;;7.03;100.00
8320;BME280;4197;42.130;24.746;2024-02-23T08:08:04;99473.91;;;7.14;100.00
8320;BME280;4197;42.130;24.746;2024-02-23T08:10:34;99476.19;;;7.46;100.00
8320;BME280;4197;42.130;24.746;2024-02-23T08:13:02;99475.19;;;7.50;100.00
8320;BME280;4197;42.130;24.746;2024-02-23T08:15:31;99474.47;;;7.41;100.00
8320;BME280;4197;42.130;24.746;2024-02-23T08:18:01;99474.13;;;7.43;100.00
8320;BME280;4197;42.130;24.746;2024-02-23T08:20:30;99468.53;;;7.48;100.00
8320;BME280;4197;42.130;24.746;2024-02-23T08:22:58;99465.41;;;7.58;100.00
8320;BME280;4197;42.130;24.746;2024-02-23T08:25:27;99464.25;;;7.80;100.00
8320;BME280;4197;42.130;24.746;2024-02-23T08:27:56;99464.34;;;7.83;100.00
8320;BME280;4197;42.130;24.746;2024-02-23T08:30:26;99464.75;;;8.07;100.00
8320;BME280;4197;42.130;24.746;2024-02-23T08:32:54;99462.47;;;8.33;100.00
8320;BME280;4197;42.130;24.746;2024-02-23T08:35:24;99459.00;;;8.57;97.16
8320;BME280;4197;42.130;24.746;2024-02-23T08:37:53;99460.81;;;8.53;97.36
8320;BME280;4197;42.130;24.746;2024-02-23T08:40:21;99468.69;;;8.58;96.55
8320;BME280;4197;42.130;24.746;2024-02-23T08:42:50;99457.44;;;8.56;98.32
8320;BME280;4197;42.130;24.746;2024-02-23T08:45:18;99456.09;;;8.62;97.09
8320;BME280;4197;42.130;24.746;2024-02-23T08:47:47;99454.03;;;8.71;97.06
8320;BME280;4197;42.130;24.746;2024-02-23T08:50:16;99452.88;;;8.85;95.91
8320;BME280;4197;42.130;24.746;2024-02-23T08:52:45;99446.50;;;9.05;93.79
8320;BME280;4197;42.130;24.746;2024-02-23T08:55:14;99463.19;;;9.07;94.31
8320;BME280;4197;42.130;24.746;2024-02-23T08:57:42;99464.59;;;9.17;94.63
8320;BME280;4197;42.130;24.746;2024-02-23T09:00:12;99459.84;;;9.26;90.83
8320;BME280;4197;42.130;24.746;2024-02-23T09:02:44;99456.91;;;9.31;89.29
8320;BME280;4197;42.130;24.746;2024-02-23T09:05:14;99459.78;;;9.38;88.47
8320;BME280;4197;42.130;24.746;2024-02-23T09:07:42;99453.19;;;9.52;88.42
8320;BME280;4197;42.130;24.746;2024-02-23T09:10:13;99441.94;;;9.66;87.35
8320;BME280;4197;42.130;24.746;2024-02-23T09:12:42;99454.28;;;9.79;86.88
8320;BME280;4197;42.130;24.746;2024-02-23T09:15:11;99443.72;;;9.90;86.02
8320;BME280;4197;42.130;24.746;2024-02-23T09:17:40;99434.47;;;9.91;86.78
8320;BME280;4197;42.130;24.746;2024-02-23T09:20:10;99444.00;;;9.85;86.55
8320;BME280;4197;42.130;24.746;2024-02-23T09:22:39;99433.94;;;9.85;86.72
8320;BME280;4197;42.130;24.746;2024-02-23T09:25:08;99435.31;;;9.95;85.05
8320;BME280;4197;42.130;24.746;2024-02-23T09:27:38;99430.88;;;10.02;85.46
8320;BME280;4197;42.130;24.746;2024-02-23T09:30:12;99430.94;;;10.22;84.23
8320;BME280;4197;42.130;24.746;2024-02-23T09:32:42;99430.97;;;10.38;84.41
8320;BME280;4197;42.130;24.746;2024-02-23T09:35:11;99427.06;;;10.55;82.15
8320;BME280;4197;42.130;24.746;2024-02-23T09:37:41;99426.25;;;10.70;81.84
8320;BME280;4197;42.130;24.746;2024-02-23T09:40:10;99420.41;;;10.87;80.29
8320;BME280;4197;42.130;24.746;2024-02-23T09:42:42;99416.13;;;10.86;80.84
8320;BME280;4197;42.130;24.746;2024-02-23T09:45:11;99421.75;;;10.78;78.29
8320;BME280;4197;42.130;24.746;2024-02-23T09:47:40;99410.25;;;10.65;79.29
8320;BME280;4197;42.130;24.746;2024-02-23T09:50:13;99408.38;;;10.69;80.19
8320;BME280;4197;42.130;24.746;2024-02-23T09:52:43;99395.50;;;10.82;79.17
8320;BME280;4197;42.130;24.746;2024-02-23T09:55:13;99404.47;;;10.86;78.30
8320;BME280;4197;42.130;24.746;2024-02-23T09:57:44;99394.28;;;10.99;77.81
8320;BME280;4197;42.130;24.746;2024-02-23T10:00:16;99391.50;;;11.14;77.90
8320;BME280;4197;42.130;24.746;2024-02-23T10:02:45;99383.31;;;11.34;77.04
8320;BME280;4197;42.130;24.746;2024-02-23T10:05:16;99381.19;;;11.47;76.48
8320;BME280;4197;42.130;24.746;2024-02-23T10:07:44;99372.03;;;11.55;74.88
8320;BME280;4197;42.130;24.746;2024-02-23T10:10:14;99372.06;;;11.78;72.59
8320;BME280;4197;42.130;24.746;2024-02-23T10:12:43;99382.31;;;11.88;72.26
8320;BME280;4197;42.130;24.746;2024-02-23T10:15:12;99376.16;;;11.91;71.89
8320;BME280;4197;42.130;24.746;2024-02-23T10:17:41;99378.25;;;12.01;72.05
8320;BME280;4197;42.130;24.746;2024-02-23T10:20:11;99372.81;;;12.01;72.46
8320;BME280;4197;42.130;24.746;2024-02-23T10:22:40;99365.09;;;12.03;72.98
8320;BME280;4197;42.130;24.746;2024-02-23T10:25:08;99358.41;;;12.24;72.15
8320;BME280;4197;42.130;24.746;2024-02-23T10:27:37;99362.44;;;12.34;70.38
8320;BME280;4197;42.130;24.746;2024-02-23T10:30:08;99357.72;;;12.61;68.98
8320;BME280;4197;42.130;24.746;2024-02-23T10:32:39;99351.47;;;12.57;68.88
8320;BME280;4197;42.130;24.746;2024-02-23T10:35:13;99354.31;;;12.37;68.93
8320;BME280;4197;42.130;24.746;2024-02-23T10:37:44;99350.22;;;12.50;68.21
8320;BME280;4197;42.130;24.746;2024-02-23T10:40:18;99351.16;;;12.65;67.23
8320;BME280;4197;42.130;24.746;2024-02-23T10:42:50;99338.44;;;12.73;66.46
8320;BME280;4197;42.130;24.746;2024-02-23T10:45:22;99340.47;;;12.80;67.06
8320;BME280;4197;42.130;24.746;2024-02-23T10:47:52;99342.44;;;12.83;68.11
8320;BME280;4197;42.130;24.746;2024-02-23T10:50:25;99331.09;;;12.77;66.62
8320;BME280;4197;42.130;24.746;2024-02-23T10:52:57;99332.75;;;12.85;66.57
8320;BME280;4197;42.130;24.746;2024-02-23T10:55:27;99318.69;;;12.80;65.90
8320;BME280;4197;42.130;24.746;2024-02-23T10:57:58;99322.47;;;13.05;65.36
8320;BME280;4197;42.130;24.746;2024-02-23T11:00:28;99314.00;;;13.14;65.91
8320;BME280;4197;42.130;24.746;2024-02-23T11:02:57;99306.72;;;13.25;64.25
8320;BME280;4197;42.130;24.746;2024-02-23T11:05:28;99310.88;;;13.12;64.49
8320;BME280;4197;42.130;24.746;2024-02-23T11:07:58;99311.97;;;13.07;64.35
8320;BME280;4197;42.130;24.746;2024-02-23T11:10:27;99308.56;;;13.14;61.98
8320;BME280;4197;42.130;24.746;2024-02-23T11:12:58;99301.94;;;13.15;61.86
8320;BME280;4197;42.130;24.746;2024-02-23T11:15:31;99288.81;;;13.24;62.58
8320;BME280;4197;42.130;24.746;2024-02-23T11:18:21;99278.44;;;13.33;61.88
8320;BME280;4197;42.130;24.746;2024-02-23T11:20:59;99282.81;;;13.49;60.85
8320;BME280;4197;42.130;24.746;2024-02-23T11:23:42;99286.38;;;13.56;61.62
8320;BME280;4197;42.130;24.746;2024-02-23T11:26:12;99290.03;;;13.75;61.07
8320;BME280;4197;42.130;24.746;2024-02-23T11:28:47;99283.81;;;13.78;60.85
8320;BME280;4197;42.130;24.746;2024-02-23T11:31:19;99283.91;;;13.89;61.00
8320;BME280;4197;42.130;24.746;2024-02-23T11:33:48;99284.75;;;14.00;60.88
8320;BME280;4197;42.130;24.746;2024-02-23T11:36:23;99276.91;;;13.95;60.22
8320;BME280;4197;42.130;24.746;2024-02-23T11:38:53;99277.25;;;13.86;60.45
8320;BME280;4197;42.130;24.746;2024-02-23T11:41:24;99278.94;;;14.09;60.10
8320;BME280;4197;42.130;24.746;2024-02-23T11:43:54;99275.09;;;14.17;59.89
8320;BME280;4197;42.130;24.746;2024-02-23T11:46:25;99276.34;;;14.34;58.06
8320;BME280;4197;42.130;24.746;2024-02-23T11:48:54;99267.69;;;14.17;58.37
8320;BME280;4197;42.130;24.746;2024-02-23T11:51:23;99269.28;;;14.29;58.68
8320;BME280;4197;42.130;24.746;2024-02-23T11:53:55;99266.19;;;14.31;59.24
8320;BME280;4197;42.130;24.746;2024-02-23T11:56:25;99255.34;;;14.45;57.89
8320;BME280;4197;42.130;24.746;2024-02-23T11:58:54;99259.25;;;14.47;57.72
8320;BME280;4197;42.130;24.746;2024-02-23T12:01:23;99261.22;;;14.50;57.67
8320;BME280;4197;42.130;24.746;2024-02-23T12:03:53;99260.03;;;14.51;58.26
8320;BME280;4197;42.130;24.746;2024-02-23T12:06:21;99259.28;;;14.55;58.29
8320;BME280;4197;42.130;24.746;2024-02-23T12:08:51;99268.72;;;14.75;55.58
8320;BME280;4197;42.130;24.746;2024-02-23T12:11:20;99257.81;;;14.79;54.74
8320;BME280;4197;42.130;24.746;2024-02-23T12:13:48;99246.13;;;14.89;54.11
8320;BME280;4197;42.130;24.746;2024-02-23T12:16:18;99250.75;;;14.74;54.08
8320;BME280;4197;42.130;24.746;2024-02-23T12:18:56;99236.34;;;14.73;54.26
8320;BME280;4197;42.130;24.746;2024-02-23T12:21:24;99245.34;;;14.81;54.77
8320;BME280;4197;42.130;24.746;2024-02-23T12:23:53;99233.25;;;14.86;54.76
8320;BME280;4197;42.130;24.746;2024-02-23T12:26:21;99234.38;;;14.74;54.52
8320;BME280;4197;42.130;24.746;2024-02-23T12:28:50;99228.94;;;14.74;54.65
8320;BME280;4197;42.130;24.746;2024-02-23T12:31:24;99229.75;;;14.92;53.28
8320;BME280;4197;42.130;24.746;2024-02-23T12:33:59;99223.91;;;14.94;53.61
8320;BME280;4197;42.130;24.746;2024-02-23T12:36:28;99213.78;;;14.94;53.79
8320;BME280;4197;42.130;24.746;2024-02-23T12:38:58;99201.28;;;15.04;53.24
8320;BME280;4197;42.130;24.746;2024-02-23T12:41:26;99211.06;;;15.05;52.48
8320;BME280;4197;42.130;24.746;2024-02-23T12:43:54;99199.34;;;14.94;53.41
8320;BME280;4197;42.130;24.746;2024-02-23T12:46:22;99207.91;;;15.03;53.19
8320;BME280;4197;42.130;24.746;2024-02-23T12:48:51;99206.38;;;15.06;53.68
8320;BME280;4197;42.130;24.746;2024-02-23T12:51:25;99192.69;;;15.31;52.72
8320;BME280;4197;42.130;24.746;2024-02-23T12:53:53;99194.66;;;15.34;52.35
8320;BME280;4197;42.130;24.746;2024-02-23T12:56:22;99186.44;;;15.37;52.17
8320;BME280;4197;42.130;24.746;2024-02-23T12:58:55;99184.47;;;15.45;51.88
8320;BME280;4197;42.130;24.746;2024-02-23T13:01:24;99190.72;;;15.49;52.57
8320;BME280;4197;42.130;24.746;2024-02-23T13:03:53;99184.47;;;15.45;52.57
8320;BME280;4197;42.130;24.746;2024-02-23T13:06:24;99173.56;;;15.52;52.66
8320;BME280;4197;42.130;24.746;2024-02-23T13:08:53;99177.44;;;15.51;52.42
8320;BME280;4197;42.130;24.746;2024-02-23T13:11:22;99177.44;;;15.55;51.62
8320;BME280;4197;42.130;24.746;2024-02-23T13:13:50;99185.28;;;15.49;51.17
8320;BME280;4197;42.130;24.746;2024-02-23T13:16:19;99185.25;;;15.56;50.69
8320;BME280;4197;42.130;24.746;2024-02-23T13:18:48;99173.94;;;15.51;51.13
8320;BME280;4197;42.130;24.746;2024-02-23T13:21:18;99172.00;;;15.48;50.87
8320;BME280;4197;42.130;24.746;2024-02-23T13:23:48;99172.38;;;15.53;50.78
8320;BME280;4197;42.130;24.746;2024-02-23T13:26:16;99167.28;;;15.48;51.11